createdAt,value
2019-03-20T00:02:26.361Z,60.20
2019-03-20T00:06:31.175Z,60.40
2019-03-20T00:10:36.345Z,61.50
2019-03-20T00:14:41.428Z,60.80
2019-03-20T00:18:46.230Z,60.50
2019-03-20T00:22:51.419Z,59.90
2019-03-20T00:26:56.239Z,60.00
2019-03-20T00:31:01.948Z,60.20
2019-03-20T00:35:06.928Z,62.00
2019-03-20T00:39:11.681Z,63.00
2019-03-20T00:43:16.633Z,63.00
2019-03-20T00:47:22.025Z,62.10
2019-03-20T00:51:26.887Z,62.20
2019-03-20T00:55:31.729Z,63.20
2019-03-20T00:59:37.705Z,63.20
2019-03-20T01:03:42.702Z,62.90
2019-03-20T01:07:50.712Z,62.60
2019-03-20T01:11:55.781Z,62.50
2019-03-20T01:16:00.728Z,62.20
2019-03-20T01:20:06.272Z,62.70
2019-03-20T01:24:11.204Z,63.50
2019-03-20T01:28:16.011Z,63.40
2019-03-20T01:32:20.877Z,63.40
2019-03-20T01:36:25.684Z,62.10
2019-03-20T01:40:30.569Z,61.50
2019-03-20T01:44:35.420Z,61.20
2019-03-20T01:48:40.219Z,61.70
2019-03-20T01:52:46.405Z,62.00
2019-03-20T01:56:51.314Z,61.90
2019-03-20T02:00:57.360Z,61.20
2019-03-20T02:05:02.163Z,62.70
2019-03-20T02:09:07.779Z,63.10
2019-03-20T02:13:12.759Z,62.80
2019-03-20T02:17:17.572Z,62.80
2019-03-20T02:21:22.701Z,62.80
2019-03-20T02:25:27.504Z,63.20
2019-03-20T02:29:32.383Z,63.00
2019-03-20T02:33:37.409Z,64.20
2019-03-20T02:37:42.294Z,64.90
2019-03-20T02:41:47.097Z,67.80
2019-03-20T02:45:51.905Z,67.60
2019-03-20T02:49:56.728Z,66.00
2019-03-20T02:54:01.744Z,66.20
2019-03-20T02:58:06.677Z,66.00
2019-03-20T03:02:11.740Z,66.80
2019-03-20T03:06:16.628Z,66.70
2019-03-20T03:10:21.582Z,65.80
2019-03-20T03:14:26.644Z,66.80
2019-03-20T03:18:31.457Z,66.20
2019-03-20T03:22:36.586Z,66.50
2019-03-20T03:26:41.388Z,67.60
2019-03-20T03:30:47.264Z,66.10
2019-03-20T03:34:52.346Z,66.00
2019-03-20T03:38:57.271Z,67.30
2019-03-20T03:43:02.292Z,68.00
2019-03-20T03:47:07.205Z,68.50
2019-03-20T03:51:12.167Z,67.70
2019-03-20T03:55:17.001Z,67.20
2019-03-20T03:59:21.900Z,66.90
2019-03-20T04:03:28.017Z,66.70
2019-03-20T04:07:32.743Z,66.80
2019-03-20T04:11:37.650Z,67.20
2019-03-20T04:15:42.555Z,67.40
2019-03-20T04:19:47.378Z,67.20
2019-03-20T04:23:52.403Z,67.40
2019-03-20T04:27:59.149Z,68.20
2019-03-20T04:32:04.084Z,68.30
2019-03-20T04:36:08.915Z,68.60
2019-03-20T04:40:14.168Z,68.60
2019-03-20T04:44:19.076Z,68.80
2019-03-20T04:48:23.896Z,68.50
2019-03-20T04:52:28.848Z,68.20
2019-03-20T04:56:33.580Z,68.80
2019-03-20T05:00:38.290Z,68.80
2019-03-20T05:04:43.288Z,68.80
2019-03-20T05:08:48.218Z,68.80
2019-03-20T05:12:53.323Z,68.30
2019-03-20T05:16:58.141Z,69.00
2019-03-20T05:21:02.975Z,69.80
2019-03-20T05:25:07.819Z,69.50
2019-03-20T05:29:12.704Z,69.00
2019-03-20T05:33:17.628Z,69.00
2019-03-20T05:37:22.428Z,68.60
2019-03-20T05:41:27.569Z,69.90
2019-03-20T05:45:33.387Z,69.20
2019-03-20T05:49:38.288Z,69.60
2019-03-20T05:53:43.290Z,68.80
2019-03-20T05:57:49.084Z,69.30
2019-03-20T06:01:57.020Z,70.40
2019-03-20T06:06:01.811Z,70.20
2019-03-20T06:10:09.544Z,69.80
2019-03-20T06:14:14.456Z,69.40
2019-03-20T06:18:19.192Z,69.40
2019-03-20T06:22:24.907Z,69.00
2019-03-20T06:26:29.780Z,68.80
2019-03-20T06:30:34.661Z,68.60
2019-03-20T06:34:40.670Z,68.30
2019-03-20T06:38:45.514Z,68.80
2019-03-20T06:42:50.629Z,68.90
2019-03-20T06:46:57.734Z,69.40
2019-03-20T06:51:02.940Z,70.40
2019-03-20T06:55:08.301Z,70.10
2019-03-20T07:00:09.215Z,70.00
2019-03-20T07:04:28.632Z,70.00
2019-03-20T07:08:40.935Z,69.60
2019-03-20T07:12:45.191Z,68.90
2019-03-20T07:16:49.877Z,69.20
2019-03-20T07:20:55.094Z,69.10
2019-03-20T07:24:59.984Z,68.90
2019-03-20T07:29:06.058Z,68.90
2019-03-20T07:33:11.000Z,68.60
2019-03-20T07:37:15.808Z,69.00
2019-03-20T07:41:20.595Z,67.60
2019-03-20T07:45:25.403Z,67.00
2019-03-20T07:49:30.229Z,66.40
2019-03-20T07:53:35.047Z,65.60
2019-03-20T07:57:39.788Z,64.90
2019-03-20T08:01:44.587Z,63.80
2019-03-20T08:05:49.480Z,63.60
2019-03-20T08:09:54.213Z,64.40
2019-03-20T08:14:00.238Z,61.50
2019-03-20T08:18:05.858Z,58.30
2019-03-20T08:22:10.903Z,57.70
2019-03-20T08:26:15.793Z,57.50
2019-03-20T08:30:20.595Z,56.70
2019-03-20T08:34:25.359Z,57.30
2019-03-20T08:38:30.293Z,56.00
2019-03-20T08:46:56.602Z,56.90
2019-03-20T08:51:01.260Z,54.30
2019-03-20T08:55:06.529Z,53.20
2019-03-20T08:59:12.627Z,52.60
2019-03-20T09:03:17.757Z,52.00
2019-03-20T09:07:22.569Z,49.30
2019-03-20T09:11:28.760Z,49.00
2019-03-20T09:15:34.618Z,50.10
2019-03-20T09:19:39.425Z,51.00
2019-03-20T09:23:44.304Z,47.80
2019-03-20T09:27:49.472Z,48.00
2019-03-20T09:31:54.363Z,47.20
2019-03-20T09:35:59.106Z,43.60
2019-03-20T09:40:04.612Z,45.10
2019-03-20T09:44:09.435Z,43.30
2019-03-20T09:48:14.301Z,44.60
2019-03-20T09:52:19.044Z,43.20
2019-03-20T09:56:23.852Z,43.40
2019-03-20T10:00:28.738Z,42.80
2019-03-20T10:04:33.552Z,42.80
2019-03-20T10:08:38.361Z,43.60
2019-03-20T10:12:43.276Z,41.90
2019-03-20T10:16:48.056Z,42.00
2019-03-20T10:20:52.992Z,41.40
2019-03-20T10:24:57.729Z,40.10
2019-03-20T10:29:02.548Z,38.40
2019-03-20T10:33:07.357Z,38.40
2019-03-20T10:37:12.296Z,38.80
2019-03-20T10:41:17.289Z,39.30
2019-03-20T10:45:22.350Z,37.40
2019-03-20T10:49:27.169Z,38.10
2019-03-20T10:53:33.569Z,38.30
2019-03-20T10:57:38.607Z,38.00
2019-03-20T11:01:43.557Z,38.60
2019-03-20T11:05:48.404Z,39.80
2019-03-20T11:09:53.264Z,37.20
2019-03-20T11:13:58.193Z,38.40
2019-03-20T11:18:03.130Z,37.80
2019-03-20T11:22:18.314Z,38.70
2019-03-20T11:26:14.786Z,37.50
2019-03-20T11:30:23.661Z,36.30
2019-03-20T11:34:28.590Z,38.60
2019-03-20T11:38:33.419Z,38.50
2019-03-20T11:42:40.732Z,41.40
2019-03-20T11:46:44.960Z,40.20
2019-03-20T11:50:49.811Z,38.00
2019-03-20T11:54:54.668Z,37.20
2019-03-20T11:58:59.516Z,37.90
2019-03-20T12:03:04.859Z,38.30
2019-03-20T12:07:12.104Z,37.70
2019-03-20T12:11:17.043Z,36.40
2019-03-20T12:15:22.011Z,36.30
2019-03-20T12:19:26.972Z,37.10
2019-03-20T12:23:33.780Z,37.70
2019-03-20T12:27:38.440Z,36.90
2019-03-20T12:31:43.363Z,36.60
2019-03-20T12:35:48.384Z,38.10
2019-03-20T12:39:53.686Z,36.30
2019-03-20T12:43:58.878Z,34.90
2019-03-20T12:48:04.235Z,34.30
2019-03-20T12:52:09.156Z,33.00
2019-03-20T12:56:14.011Z,31.80
2019-03-20T13:00:20.975Z,29.40
2019-03-20T13:04:25.934Z,28.90
2019-03-20T13:08:30.858Z,27.80
2019-03-20T13:12:35.751Z,27.50
2019-03-20T13:16:40.672Z,28.20
2019-03-20T13:20:45.587Z,27.80
2019-03-20T13:24:50.437Z,28.40
2019-03-20T13:28:55.381Z,28.90
2019-03-20T13:33:00.312Z,29.20
2019-03-20T13:37:05.251Z,28.50
2019-03-20T13:41:10.109Z,27.50
2019-03-20T13:45:15.790Z,27.30
2019-03-20T13:49:20.708Z,26.00
2019-03-20T13:53:27.979Z,25.90
2019-03-20T13:57:32.785Z,26.50
2019-03-20T14:01:37.957Z,25.90
2019-03-20T14:05:42.895Z,25.90
2019-03-20T14:09:47.722Z,25.00
2019-03-20T14:13:52.688Z,24.80
2019-03-20T14:17:57.531Z,24.20
2019-03-20T14:22:02.465Z,24.00
2019-03-20T14:26:07.958Z,24.20
2019-03-20T14:30:16.170Z,23.80
2019-03-20T14:34:21.052Z,23.60
2019-03-20T14:38:25.828Z,22.90
2019-03-20T14:42:30.953Z,21.90
2019-03-20T14:46:35.878Z,22.30
2019-03-20T14:50:40.749Z,21.70
2019-03-20T14:54:45.698Z,21.70
2019-03-20T14:58:50.678Z,22.00
2019-03-20T15:02:56.338Z,21.70
2019-03-20T15:07:01.222Z,21.30
2019-03-20T15:11:06.153Z,20.90
2019-03-20T15:15:21.221Z,21.00
2019-03-20T15:19:26.068Z,21.40
2019-03-20T15:23:31.024Z,21.60
2019-03-20T15:27:35.941Z,20.80
2019-03-20T15:31:41.069Z,20.70
2019-03-20T15:35:45.896Z,21.30
2019-03-20T15:39:50.868Z,21.30
2019-03-20T15:44:02.445Z,21.10
2019-03-20T15:48:02.388Z,21.80
2019-03-20T15:52:07.284Z,22.40
2019-03-20T15:56:12.294Z,22.50
2019-03-20T16:00:18.346Z,22.90
2019-03-20T16:04:23.269Z,22.90
2019-03-20T16:08:28.223Z,23.70
2019-03-20T16:12:33.088Z,23.80
2019-03-20T16:16:38.006Z,24.20
2019-03-20T16:20:42.831Z,24.80
2019-03-20T16:24:47.714Z,25.10
2019-03-20T16:28:53.654Z,25.30
2019-03-20T16:32:59.676Z,25.60
2019-03-20T16:37:04.694Z,25.90
2019-03-20T16:41:16.735Z,26.40
2019-03-20T16:45:19.572Z,27.20
2019-03-20T16:49:24.404Z,27.10
2019-03-20T16:53:29.330Z,27.40
2019-03-20T16:57:34.183Z,27.60
2019-03-20T17:01:39.117Z,28.30
2019-03-20T17:05:44.035Z,28.30
2019-03-20T17:09:48.814Z,29.10
2019-03-20T17:13:53.748Z,29.60
2019-03-20T17:17:59.071Z,30.10
2019-03-20T17:22:04.008Z,30.40
2019-03-20T17:26:08.909Z,31.10
2019-03-20T17:30:19.411Z,31.20
2019-03-20T17:34:24.394Z,31.70
2019-03-20T17:38:29.340Z,32.50
2019-03-20T17:42:34.367Z,33.40
2019-03-20T17:46:39.400Z,33.60
2019-03-20T17:50:44.345Z,34.00
2019-03-20T17:54:49.282Z,33.80
2019-03-20T17:58:54.145Z,34.40
2019-03-20T18:02:58.930Z,35.00
2019-03-20T18:07:05.012Z,34.80
2019-03-20T18:11:09.953Z,34.80
2019-03-20T18:15:14.904Z,35.20
2019-03-20T18:19:19.788Z,35.50
2019-03-20T18:23:24.680Z,36.00
2019-03-20T18:27:29.620Z,36.80
2019-03-20T18:31:45.492Z,36.80
2019-03-20T18:35:42.279Z,37.20
2019-03-20T18:39:47.327Z,37.90
2019-03-20T18:43:52.291Z,37.40
2019-03-20T18:47:57.251Z,37.70
2019-03-20T18:52:02.217Z,38.10
2019-03-20T18:56:07.167Z,39.40
2019-03-20T19:00:15.024Z,39.00
2019-03-20T19:04:19.916Z,39.80
2019-03-20T19:08:24.770Z,40.00
2019-03-20T19:12:29.937Z,39.80
2019-03-20T19:16:34.741Z,40.20
2019-03-20T19:20:39.566Z,40.60
2019-03-20T19:24:44.454Z,40.80
2019-03-20T19:28:49.275Z,40.60
2019-03-20T19:32:54.386Z,40.90
2019-03-20T19:36:59.300Z,40.70
2019-03-20T19:41:04.275Z,41.40
2019-03-20T19:45:09.912Z,42.00
2019-03-20T19:49:14.715Z,42.00
2019-03-20T19:53:19.840Z,42.10
2019-03-20T19:57:25.070Z,41.70
2019-03-20T20:01:31.644Z,41.20
2019-03-20T20:05:36.571Z,41.70
2019-03-20T20:09:41.468Z,42.40
2019-03-20T20:13:46.960Z,43.30
2019-03-20T20:17:51.960Z,42.30
2019-03-20T20:21:56.965Z,42.40
2019-03-20T20:26:01.982Z,42.60
2019-03-20T20:30:07.852Z,43.20
2019-03-20T20:34:13.223Z,43.20
2019-03-20T20:38:18.073Z,43.00
2019-03-20T20:42:23.524Z,43.20
2019-03-20T20:46:28.667Z,43.80
2019-03-20T20:50:34.892Z,44.30
2019-03-20T20:54:39.843Z,48.30
2019-03-20T20:58:44.919Z,47.10
2019-03-20T21:02:49.932Z,45.80
2019-03-20T21:06:58.010Z,45.90
2019-03-20T21:11:02.914Z,47.30
2019-03-20T21:15:17.197Z,48.40
2019-03-20T21:19:39.936Z,48.30
2019-03-20T21:24:21.164Z,48.90
2019-03-20T21:29:15.333Z,48.10
2019-03-20T21:34:13.621Z,48.30
2019-03-20T21:38:19.425Z,48.90
2019-03-20T21:43:06.842Z,49.20
2019-03-20T21:47:33.264Z,48.90
2019-03-20T21:51:38.936Z,47.90
2019-03-20T21:56:24.117Z,48.20
2019-03-20T22:01:21.249Z,48.70
2019-03-20T22:05:40.740Z,48.80
2019-03-20T22:10:57.369Z,48.90
2019-03-20T22:15:16.512Z,49.20
2019-03-20T22:19:55.736Z,49.60
2019-03-20T22:24:26.209Z,50.40
2019-03-20T22:29:12.253Z,50.50
2019-03-20T22:33:53.277Z,50.80
2019-03-20T22:38:00.514Z,51.00
2019-03-20T22:42:33.014Z,51.60
2019-03-20T22:47:14.240Z,52.20
2019-03-20T22:51:30.506Z,51.90
2019-03-20T22:55:53.906Z,51.60
2019-03-20T22:59:59.232Z,51.60
2019-03-20T23:04:27.549Z,51.80
2019-03-20T23:08:33.017Z,51.80
2019-03-20T23:12:38.565Z,52.00
2019-03-20T23:16:43.908Z,51.80
2019-03-20T23:20:49.463Z,51.90
2019-03-20T23:24:54.889Z,52.20
2019-03-20T23:29:00.167Z,52.60
2019-03-20T23:33:05.885Z,53.00
2019-03-20T23:37:11.252Z,53.30
2019-03-20T23:41:16.803Z,53.30
2019-03-20T23:45:22.167Z,53.60
2019-03-20T23:49:27.607Z,53.30
2019-03-20T23:53:33.453Z,53.10
2019-03-20T23:57:38.888Z,53.10
